Time;durP1;ratioP1;P1;durP2;ratioP2;P2;SDS_P1;SDS_P2;PMS_P1;PMS_P2;Temp;Humidity;BMP_temperature;BMP_pressure;BME280_temperature;BME280_humidity;BME280_pressure;Samples;Min_cycle;Max_cycle;Signal;HPM_P1;HPM_P2
2021/08/19 00:00:45;;;;;;;37.80;35.80;;;;;;;17.36;100.00;101506.88;1972170;73;30931;-79
2021/08/19 00:06:09;;;;;;;38.77;36.77;;;;;;;17.34;100.00;101503.54;1972149;73;32897;-80
2021/08/19 00:11:35;;;;;;;37.80;35.77;;;;;;;17.35;100.00;101508.59;1971938;73;30951;-79
2021/08/19 00:17:07;;;;;;;39.40;37.20;;;;;;;17.32;100.00;101512.87;1972157;73;33394;-80
2021/08/19 00:22:33;;;;;;;39.97;37.77;;;;;;;17.17;100.00;101504.19;1948088;73;33384;-78
2021/08/19 00:27:58;;;;;;;39.30;37.10;;;;;;;17.19;100.00;101490.69;1972136;73;31017;-79
2021/08/19 00:33:22;;;;;;;41.03;38.63;;;;;;;17.18;100.00;101496.60;1971949;73;31035;-74
2021/08/19 00:38:49;;;;;;;41.40;38.93;;;;;;;17.07;100.00;101490.36;1972166;73;31440;-80
2021/08/19 00:44:15;;;;;;;42.23;39.73;;;;;;;17.02;100.00;101489.09;1971928;73;30969;-80
2021/08/19 00:49:41;;;;;;;42.30;39.90;;;;;;;17.10;100.00;101491.73;1972133;73;33495;-80
2021/08/19 00:55:10;;;;;;;40.90;38.40;;;;;;;17.05;100.00;101489.86;1951979;73;31100;-80
2021/08/19 01:00:37;;;;;;;42.83;40.33;;;;;;;16.99;100.00;101490.27;1971848;73;33053;-74
2021/08/19 01:06:03;;;;;;;42.47;39.97;;;;;;;16.92;100.00;101482.28;1972251;73;30992;-74
2021/08/19 01:11:30;;;;;;;42.77;40.27;;;;;;;17.04;100.00;101473.31;1972003;73;31072;-73
2021/08/19 01:16:55;;;;;;;42.57;40.07;;;;;;;16.96;100.00;101472.09;1971989;73;30989;-80
2021/08/19 01:22:20;;;;;;;43.00;40.50;;;;;;;17.04;100.00;101485.95;1950185;73;31043;-74
2021/08/19 01:27:45;;;;;;;43.33;40.53;;;;;;;16.90;100.00;101483.14;1972118;72;33006;-73
2021/08/19 01:33:09;;;;;;;43.37;40.83;;;;;;;16.84;100.00;101476.00;1971946;73;30973;-79
2021/08/19 01:38:36;;;;;;;44.53;41.73;;;;;;;16.90;100.00;101480.34;1972112;73;31506;-75
2021/08/19 01:44:00;;;;;;;44.70;42.10;;;;;;;16.84;100.00;101484.41;1971910;73;33023;-80
2021/08/19 01:49:27;;;;;;;45.73;42.97;;;;;;;16.71;100.00;101482.44;1971861;73;33382;-74
2021/08/19 01:54:51;;;;;;;44.20;41.60;;;;;;;16.73;100.00;101478.16;1972192;73;33073;-80
2021/08/19 02:00:18;;;;;;;43.50;40.90;;;;;;;16.83;100.00;101472.36;1971960;73;30976;-74
2021/08/19 02:05:43;;;;;;;44.03;41.13;;;;;;;16.63;100.00;101471.94;1972210;73;31084;-79
2021/08/19 02:11:14;;;;;;;45.80;42.90;;;;;;;16.76;100.00;101470.55;1972170;73;33510;-79
2021/08/19 02:16:39;;;;;;;45.10;42.30;;;;;;;16.69;100.00;101473.48;1971867;73;32966;-79
2021/08/19 02:22:03;;;;;;;46.40;43.50;;;;;;;16.83;100.00;101463.09;1971887;73;31012;-80
2021/08/19 02:27:29;;;;;;;46.50;43.60;;;;;;;16.53;100.00;101471.52;1972139;73;30964;-80
2021/08/19 02:32:56;;;;;;;47.07;44.07;;;;;;;16.62;100.00;101460.45;1972067;73;30976;-74
2021/08/19 02:38:20;;;;;;;45.27;42.57;;;;;;;16.59;100.00;101463.31;1971943;73;30953;-80
2021/08/19 02:44:05;;;;;;;46.67;43.80;;;;;;;16.63;100.00;101454.54;1990025;71;30963;-72
2021/08/19 02:49:30;;;;;;;45.93;43.03;;;;;;;16.42;100.00;101465.86;1972132;73;31064;-80
2021/08/19 02:55:01;;;;;;;45.57;42.73;;;;;;;16.56;100.00;101461.08;1971979;73;30967;-80
2021/08/19 03:00:26;;;;;;;45.73;42.93;;;;;;;16.52;100.00;101460.04;1971894;73;33010;-74
2021/08/19 03:06:10;;;;;;;45.10;42.30;;;;;;;16.49;100.00;101466.84;2014746;71;32889;-73
2021/08/19 03:11:34;;;;;;;45.47;42.57;;;;;;;16.56;100.00;101464.48;1971919;73;32947;-79
2021/08/19 03:17:00;;;;;;;47.63;44.63;;;;;;;16.39;100.00;101460.85;1972099;73;32903;-79
2021/08/19 03:22:24;;;;;;;49.03;45.87;;;;;;;16.25;100.00;101449.64;1972104;73;31118;-74
2021/08/19 03:27:49;;;;;;;48.30;45.20;;;;;;;16.31;100.00;101446.98;1971937;73;32896;-74
2021/08/19 03:33:14;;;;;;;47.50;44.40;;;;;;;16.24;100.00;101441.53;1971980;73;30963;-74
2021/08/19 03:38:39;;;;;;;46.93;43.90;;;;;;;16.20;100.00;101440.48;1971863;73;32975;-74
2021/08/19 03:44:04;;;;;;;46.50;43.60;;;;;;;16.07;100.00;101430.91;1972101;73;33415;-74
2021/08/19 03:49:29;;;;;;;49.80;46.90;;;;;;;16.02;100.00;101442.77;1972152;73;33463;-80
2021/08/19 03:54:53;;;;;;;48.93;45.93;;;;;;;16.03;100.00;101434.06;1971823;73;32886;-74
2021/08/19 04:00:19;;;;;;;47.43;44.30;;;;;;;16.06;100.00;101426.44;1965384;73;39759;-74
2021/08/19 04:05:44;;;;;;;47.37;44.30;;;;;;;16.02;100.00;101432.39;1971905;73;32935;-74
2021/08/19 04:11:08;;;;;;;48.07;44.87;;;;;;;16.04;100.00;101432.10;1972117;73;33607;-74
2021/08/19 04:16:33;;;;;;;47.07;44.23;;;;;;;16.02;100.00;101432.39;1972108;73;33583;-74
2021/08/19 04:21:58;;;;;;;46.63;43.73;;;;;;;16.03;100.00;101441.08;1954446;73;32922;-80
2021/08/19 04:27:21;;;;;;;46.83;43.90;;;;;;;15.96;100.00;101432.21;1971898;73;32980;-80
2021/08/19 04:32:46;;;;;;;46.60;43.60;;;;;;;16.04;100.00;101442.74;1972164;72;31488;-80
2021/08/19 04:38:11;;;;;;;46.87;44.07;;;;;;;16.09;100.00;101439.83;1972151;73;33562;-79
2021/08/19 04:43:36;;;;;;;48.53;45.53;;;;;;;15.91;100.00;101433.73;1971919;73;33020;-73
2021/08/19 04:49:05;;;;;;;46.23;43.43;;;;;;;16.04;100.00;101446.11;1972117;73;33428;-74
2021/08/19 04:54:27;;;;;;;49.20;46.13;;;;;;;15.94;100.00;101448.52;1971905;73;33052;-80
2021/08/19 04:59:52;;;;;;;49.47;46.40;;;;;;;15.92;100.00;101442.38;1971947;73;32967;-80
2021/08/19 05:05:16;;;;;;;49.40;46.27;;;;;;;15.89;100.00;101444.39;1971924;73;33046;-74
2021/08/19 05:10:41;;;;;;;45.77;42.87;;;;;;;15.99;100.00;101433.02;1971888;73;33001;-74
2021/08/19 05:16:07;;;;;;;51.10;47.90;;;;;;;15.97;100.00;101439.48;1971949;73;33049;-74
2021/08/19 05:21:32;;;;;;;49.10;46.17;;;;;;;15.74;100.00;101442.70;1971862;73;33025;-73
2021/08/19 05:26:56;;;;;;;51.23;48.13;;;;;;;15.86;100.00;101439.41;1971905;72;33001;-74
2021/08/19 05:32:21;;;;;;;52.33;49.30;;;;;;;15.98;100.00;101443.13;1971965;73;33019;-80
2021/08/19 05:37:45;;;;;;;50.00;47.20;;;;;;;16.02;100.00;101439.41;1972108;73;33474;-74
2021/08/19 05:43:11;;;;;;;49.93;47.07;;;;;;;15.96;100.00;101434.21;1971939;73;32904;-80
2021/08/19 05:48:37;;;;;;;51.07;48.17;;;;;;;16.02;100.00;101446.97;1972182;73;33431;-74
2021/08/19 05:54:02;;;;;;;53.23;50.13;;;;;;;16.05;100.00;101445.78;1972124;73;33526;-83
2021/08/19 05:59:26;;;;;;;56.20;53.00;;;;;;;16.00;100.00;101452.07;1955707;73;28084;-72
2021/08/19 06:04:51;;;;;;;52.40;49.47;;;;;;;15.94;100.00;101456.92;1971869;73;32883;-75
2021/08/19 06:10:15;;;;;;;49.93;47.03;;;;;;;16.10;100.00;101449.91;1971881;73;32908;-72
2021/08/19 06:15:40;;;;;;;51.80;48.90;;;;;;;16.01;100.00;101453.71;1971931;73;33026;-79
2021/08/19 06:21:05;;;;;;;50.67;47.60;;;;;;;15.96;100.00;101455.23;1965270;73;32958;-81
2021/08/19 06:26:30;;;;;;;51.87;48.73;;;;;;;16.11;100.00;101460.55;1971998;73;32876;-73
2021/08/19 06:31:57;;;;;;;47.80;44.80;;;;;;;16.19;100.00;101460.67;1972155;73;33425;-74
2021/08/19 06:37:21;;;;;;;47.43;44.53;;;;;;;16.14;100.00;101455.72;1971967;73;33007;-74
2021/08/19 06:42:46;;;;;;;48.80;45.73;;;;;;;16.05;100.00;101462.59;1971857;73;33013;-80
2021/08/19 06:48:13;;;;;;;47.43;44.60;;;;;;;16.07;100.00;101464.55;1972412;73;32957;-74
2021/08/19 06:53:38;;;;;;;47.20;44.47;;;;;;;16.17;100.00;101465.73;1972042;73;32999;-73
2021/08/19 06:59:02;;;;;;;44.70;41.90;;;;;;;16.14;100.00;101458.52;1971865;73;33014;-78
2021/08/19 07:04:27;;;;;;;44.80;42.10;;;;;;;16.25;100.00;101446.00;1971917;73;32925;-73
2021/08/19 07:09:52;;;;;;;47.00;44.20;;;;;;;16.39;100.00;101444.03;1971852;73;32980;-74
2021/08/19 07:15:16;;;;;;;47.00;44.10;;;;;;;16.39;100.00;101446.83;1971952;73;30966;-74
2021/08/19 07:20:42;;;;;;;47.57;44.87;;;;;;;16.47;100.00;101451.75;1971272;71;33035;-73
2021/08/19 07:26:07;;;;;;;46.47;43.80;;;;;;;16.49;100.00;101450.86;1971903;72;32905;-78
2021/08/19 07:31:32;;;;;;;49.23;46.50;;;;;;;16.55;100.00;101446.82;1971919;73;31039;-77
2021/08/19 07:37:03;;;;;;;44.47;42.07;;;;;;;16.64;100.00;101446.96;1971889;73;32959;-78
2021/08/19 07:42:28;;;;;;;42.53;40.03;;;;;;;16.65;100.00;101462.62;1971886;73;33068;-75
2021/08/19 07:48:14;;;;;;;42.77;40.17;;;;;;;16.75;100.00;101454.84;2016524;71;32920;-74
2021/08/19 07:53:39;;;;;;;39.50;37.27;;;;;;;16.88;100.00;101450.37;1971915;73;33043;-79
2021/08/19 07:59:03;;;;;;;38.17;35.93;;;;;;;16.91;100.00;101446.09;1972175;73;31455;-79
2021/08/19 08:04:31;;;;;;;35.53;33.53;;;;;;;17.08;100.00;101461.16;1971846;73;32908;-80
2021/08/19 08:09:56;;;;;;;36.00;34.00;;;;;;;17.07;100.00;101456.67;1971875;73;32965;-74
2021/08/19 08:15:21;;;;;;;34.30;32.30;;;;;;;17.30;100.00;101457.58;1972133;73;31476;-73
2021/08/19 08:21:05;;;;;;;34.70;32.80;;;;;;;17.22;100.00;101449.34;2016369;71;31396;-74
2021/08/19 08:26:30;;;;;;;35.57;33.47;;;;;;;17.40;100.00;101448.09;1972060;73;31024;-77
2021/08/19 08:31:55;;;;;;;32.07;30.23;;;;;;;17.47;100.00;101456.91;1972189;73;31418;-78
2021/08/19 08:37:19;;;;;;;33.63;31.73;;;;;;;17.54;100.00;101450.30;1972118;73;31020;-77
2021/08/19 08:42:44;;;;;;;29.80;28.17;;;;;;;17.96;100.00;101447.59;1972007;73;30929;-75
2021/08/19 08:48:12;;;;;;;29.63;27.93;;;;;;;17.75;100.00;101452.90;1972044;73;31092;-78
2021/08/19 08:53:37;;;;;;;28.63;27.23;;;;;;;18.02;100.00;101440.09;1972115;73;31513;-75
2021/08/19 08:59:03;;;;;;;28.33;26.90;;;;;;;18.75;100.00;101438.66;1971934;73;30929;-76
2021/08/19 09:04:28;;;;;;;24.10;22.90;;;;;;;18.65;100.00;101440.39;1971883;73;31043;-77
2021/08/19 09:09:56;;;;;;;23.90;22.70;;;;;;;18.49;100.00;101444.16;1971927;73;31095;-77
2021/08/19 09:15:27;;;;;;;25.03;23.73;;;;;;;18.50;100.00;101443.02;1972182;73;31074;-78
2021/08/19 09:20:52;;;;;;;24.23;22.93;;;;;;;18.79;100.00;101436.02;1970273;71;33418;-78
2021/08/19 09:26:29;;;;;;;24.10;22.80;;;;;;;18.68;100.00;101441.14;1972135;73;30952;-76
2021/08/19 09:32:26;;;;;;;22.90;21.60;;;;;;;19.53;100.00;101440.51;1972149;73;30970;-78
2021/08/19 09:37:52;;;;;;;22.77;21.67;;;;;;;19.17;100.00;101447.58;1972139;73;31505;-74
2021/08/19 09:43:20;;;;;;;20.73;19.63;;;;;;;19.29;100.00;101444.94;1972169;73;31044;-76
2021/08/19 09:48:46;;;;;;;20.37;19.37;;;;;;;19.52;100.00;101445.05;1971900;73;31000;-78
2021/08/19 09:54:14;;;;;;;21.27;20.17;;;;;;;19.20;100.00;101439.87;1972065;73;30968;-74
2021/08/19 09:59:41;;;;;;;21.17;20.17;;;;;;;19.27;100.00;101439.63;1971932;73;31099;-77
2021/08/19 10:05:09;;;;;;;21.33;20.33;;;;;;;20.07;100.00;101419.78;1971995;73;30973;-75
2021/08/19 10:10:33;;;;;;;18.53;17.63;;;;;;;19.93;100.00;101423.41;1971948;73;30992;-75
2021/08/19 10:16:00;;;;;;;19.97;18.87;;;;;;;19.77;100.00;101430.13;1972187;73;31610;-76
2021/08/19 10:21:27;;;;;;;21.67;20.53;;;;;;;19.82;100.00;101431.36;1967372;71;31538;-74
2021/08/19 10:27:13;;;;;;;22.90;21.50;;;;;;;19.54;100.00;101425.27;1971953;73;31017;-78
2021/08/19 10:32:46;;;;;;;21.87;20.67;;;;;;;20.04;100.00;101419.64;1971957;73;30967;-77
2021/08/19 10:38:11;;;;;;;19.10;18.10;;;;;;;20.09;100.00;101418.05;1971929;73;30975;-77
2021/08/19 10:43:39;;;;;;;20.50;19.43;;;;;;;20.03;100.00;101425.02;1972201;73;30959;-74
2021/08/19 10:46:15;;;;;;;20.00;18.90;;;;;;;19.90;100.00;101419.24;1934866;74;24136;-75
2021/08/19 10:51:44;;;;;;;19.70;18.70;;;;;;;20.50;100.00;101416.86;1971968;73;30962;-78
2021/08/19 10:57:30;;;;;;;19.27;18.37;;;;;;;20.07;100.00;101416.16;1971932;73;30962;-75
2021/08/19 11:02:56;;;;;;;19.60;18.60;;;;;;;20.10;100.00;101410.68;1972143;73;31455;-77
2021/08/19 11:08:52;;;;;;;19.50;18.50;;;;;;;20.11;100.00;101411.51;1971905;72;31056;-72
2021/08/19 11:14:28;;;;;;;18.63;17.77;;;;;;;20.91;100.00;101397.81;1971949;73;30964;-76
2021/08/19 11:19:53;;;;;;;19.70;18.60;;;;;;;20.43;100.00;101394.82;1971964;73;31089;-73
2021/08/19 11:25:22;;;;;;;18.93;18.03;;;;;;;20.62;100.00;101397.23;1972086;73;31474;-72
2021/08/19 11:31:20;;;;;;;18.93;18.00;;;;;;;20.62;100.00;101400.06;1989783;71;33364;-74
2021/08/19 11:36:46;;;;;;;20.43;19.30;;;;;;;20.85;100.00;101386.45;1971907;73;31106;-72
2021/08/19 11:42:33;;;;;;;19.40;18.40;;;;;;;21.08;100.00;101385.57;2016275;71;31390;-73
2021/08/19 11:48:14;;;;;;;19.27;18.37;;;;;;;20.68;100.00;101387.39;1971935;73;31501;-76
2021/08/19 11:53:39;;;;;;;19.00;18.00;;;;;;;21.13;100.00;101382.00;1971975;73;30979;-74
2021/08/19 11:59:11;;;;;;;18.27;17.37;;;;;;;21.30;100.00;101381.03;1972058;73;31464;-73
2021/08/19 12:04:37;;;;;;;18.77;17.77;;;;;;;21.31;100.00;101372.77;1972181;73;31573;-74
2021/08/19 12:07:07;;;;;;;18.10;17.30;;;;;;;;;;1934983;74;24632;-75
2021/08/19 12:12:52;;;;;;;18.47;17.57;;;;;;;21.34;100.00;101377.76;2016230;71;30896;-75
2021/08/19 12:21:18;;;;;;;19.33;18.43;;;;;;;21.25;100.00;101367.11;2052057;69;33282;-72
2021/08/19 12:23:50;;;;;;;19.67;18.57;;;;;;;21.34;100.00;101367.86;1919813;74;24110;-73
2021/08/19 12:26:21;;;;;;;19.07;18.07;;;;;;;21.52;100.00;101372.17;1993761;72;24146;-75
2021/08/19 12:28:58;;;;;;;18.50;17.50;;;;;;;21.50;100.00;101371.70;1993891;72;24190;-75
2021/08/19 12:31:47;;;;;;;19.43;18.50;;;;;;;21.50;100.00;101366.05;1993776;72;24629;-74
2021/08/19 12:34:18;;;;;;;19.90;18.90;;;;;;;21.45;100.00;101373.91;1923107;74;24252;-75
2021/08/19 12:36:49;;;;;;;19.87;18.90;;;;;;;21.41;100.00;101376.61;1894988;75;24150;-75
2021/08/19 12:39:24;;;;;;;22.23;21.03;;;;;;;21.32;100.00;101383.75;1993658;72;24215;-74
2021/08/19 12:45:09;;;;;;;23.40;22.17;;;;;;;21.35;100.00;101373.73;1971944;73;31000;-74
2021/08/19 12:50:54;;;;;;;21.23;20.23;;;;;;;21.66;100.00;101386.02;2016231;71;30989;-73
2021/08/19 12:56:24;;;;;;;22.20;21.00;;;;;;;21.70;100.00;101375.66;1971931;73;30975;-73
2021/08/19 13:01:49;;;;;;;22.73;21.53;;;;;;;21.69;100.00;101386.77;1971981;73;31019;-73
2021/08/19 13:07:33;;;;;;;22.67;21.37;;;;;;;21.61;100.00;101388.47;2016267;71;31387;-73
2021/08/19 13:12:58;;;;;;;22.77;21.65;;;;;;;21.56;100.00;101378.81;1972189;73;30976;-72
2021/08/19 13:18:23;;;;;;;24.35;22.95;;;;;;;21.50;100.00;101377.36;1971964;73;31069;-74
2021/08/19 13:23:47;;;;;;;22.83;21.63;;;;;;;21.70;100.00;101372.84;1971916;73;31067;-71
2021/08/19 13:29:11;;;;;;;24.05;22.85;;;;;;;21.72;100.00;101362.84;1971971;73;31062;-72
2021/08/19 13:34:37;;;;;;;23.43;22.13;;;;;;;21.68;100.00;101366.72;1971974;73;30965;-72
2021/08/19 13:40:06;;;;;;;22.73;21.43;;;;;;;21.80;100.00;101363.93;1972062;73;31066;-77
2021/08/19 13:45:32;;;;;;;23.47;22.27;;;;;;;21.65;100.00;101371.05;1971933;73;31025;-74
2021/08/19 13:50:58;;;;;;;23.00;21.70;;;;;;;21.73;100.00;101365.09;1972194;73;31067;-74
2021/08/19 13:56:22;;;;;;;23.07;21.85;;;;;;;21.78;100.00;101364.85;1971943;73;31046;-71
2021/08/19 14:01:48;;;;;;;22.13;21.03;;;;;;;21.74;100.00;101361.90;1972123;73;31034;-74
2021/08/19 14:07:13;;;;;;;21.43;20.43;;;;;;;21.93;100.00;101352.92;1972183;73;31038;-76
2021/08/19 14:12:38;;;;;;;20.10;19.10;;;;;;;22.11;100.00;101358.63;1972197;73;30965;-71
2021/08/19 14:18:03;;;;;;;19.50;18.60;;;;;;;22.06;100.00;101348.95;1972200;73;30967;-74
2021/08/19 14:23:28;;;;;;;20.95;19.95;;;;;;;21.98;100.00;101334.91;1971945;73;31092;-74
2021/08/19 14:28:55;;;;;;;20.17;19.27;;;;;;;22.13;100.00;101339.87;1972151;73;31041;-74
2021/08/19 14:34:21;;;;;;;19.53;18.63;;;;;;;22.44;100.00;101337.30;1972243;73;30947;-72
2021/08/19 14:40:07;;;;;;;20.17;19.27;;;;;;;22.14;100.00;101335.87;2016480;71;30957;-74
2021/08/19 14:45:38;;;;;;;22.22;21.23;;;;;;;22.08;100.00;101326.77;1972133;73;33442;-72
2021/08/19 14:51:03;;;;;;;21.33;20.33;;;;;;;22.02;100.00;101327.36;1971876;73;31047;-73
2021/08/19 14:56:27;;;;;;;20.97;19.98;;;;;;;22.27;100.00;101323.97;1971965;73;31014;-73
2021/08/19 15:01:52;;;;;;;22.40;21.40;;;;;;;22.22;100.00;101325.02;1971873;73;31018;-73
2021/08/19 15:07:16;;;;;;;23.23;22.00;;;;;;;22.30;100.00;101319.84;1972144;72;31543;-71
2021/08/19 15:12:41;;;;;;;22.43;21.33;;;;;;;22.13;100.00;101327.13;1971903;73;30981;-75
2021/08/19 15:18:07;;;;;;;23.20;22.10;;;;;;;22.08;100.00;101330.19;1972125;73;31572;-74
2021/08/19 15:23:36;;;;;;;23.83;22.73;;;;;;;22.09;100.00;101325.59;1971942;73;30967;-74
2021/08/19 15:29:04;;;;;;;23.77;22.55;;;;;;;22.21;100.00;101323.37;1972175;73;30950;-70
2021/08/19 15:34:28;;;;;;;23.18;21.97;;;;;;;22.08;100.00;101318.28;1972010;73;30983;-77
2021/08/19 15:39:53;;;;;;;22.42;21.42;;;;;;;22.12;100.00;101309.94;1971943;72;30960;-75
2021/08/19 15:45:18;;;;;;;21.60;20.67;;;;;;;22.08;100.00;101298.48;1972249;73;31577;-75
2021/08/19 15:51:03;;;;;;;22.07;20.90;;;;;;;22.37;100.00;101284.71;2016789;71;30905;-70
2021/08/19 15:56:29;;;;;;;21.07;20.08;;;;;;;22.20;100.00;101273.05;1971999;73;30974;-69
2021/08/19 16:01:54;;;;;;;22.13;21.10;;;;;;;22.15;100.00;101273.86;1972071;73;30970;-72
2021/08/19 16:07:19;;;;;;;26.12;24.67;;;;;;;22.20;100.00;101280.70;1971968;73;31063;-74
2021/08/19 16:12:45;;;;;;;25.17;23.98;;;;;;;22.03;100.00;101280.92;1972171;73;31519;-73
2021/08/19 16:18:10;;;;;;;23.77;22.67;;;;;;;22.17;100.00;101270.06;1972255;73;31032;-72
2021/08/19 16:23:37;;;;;;;23.70;22.40;;;;;;;22.30;100.00;101270.30;1972097;73;31020;-73
2021/08/19 16:29:03;;;;;;;24.12;22.82;;;;;;;22.39;100.00;101261.11;1971906;73;30991;-68
2021/08/19 16:34:29;;;;;;;24.35;23.05;;;;;;;22.23;100.00;101260.17;1972206;73;31485;-72
2021/08/19 16:39:54;;;;;;;27.85;26.35;;;;;;;22.34;100.00;101264.17;1972390;73;30979;-72
2021/08/19 16:45:18;;;;;;;27.73;26.30;;;;;;;22.25;100.00;101260.63;1972167;73;31692;-73
2021/08/19 16:50:44;;;;;;;27.07;25.57;;;;;;;22.21;100.00;101266.77;1972318;73;31006;-71
2021/08/19 16:56:10;;;;;;;27.45;26.05;;;;;;;22.39;100.00;101271.59;1971996;73;30932;-69
2021/08/19 17:01:34;;;;;;;27.65;26.15;;;;;;;22.05;100.00;101268.06;1972222;73;31622;-71
2021/08/19 17:06:59;;;;;;;27.37;25.90;;;;;;;22.16;100.00;101262.78;1971940;73;30972;-75
2021/08/19 17:12:25;;;;;;;28.73;27.22;;;;;;;22.05;100.00;101265.23;1971940;73;31030;-76
2021/08/19 17:17:49;;;;;;;28.15;26.57;;;;;;;21.91;100.00;101263.88;1972188;73;31499;-74
2021/08/19 17:23:17;;;;;;;28.55;27.05;;;;;;;22.04;100.00;101267.82;1972163;73;31400;-77
2021/08/19 17:28:42;;;;;;;29.17;27.57;;;;;;;22.14;100.00;101258.88;1972192;73;31086;-72
2021/08/19 17:34:08;;;;;;;30.25;28.50;;;;;;;21.80;100.00;101260.12;1971984;73;30939;-74
2021/08/19 17:39:33;;;;;;;31.43;29.73;;;;;;;21.74;100.00;101253.02;1972239;73;31526;-75
2021/08/19 17:44:58;;;;;;;32.53;30.73;;;;;;;21.60;100.00;101252.55;1972163;73;31451;-72
2021/08/19 17:50:22;;;;;;;33.23;31.43;;;;;;;21.64;100.00;101256.33;1971903;73;31018;-76
2021/08/19 17:55:48;;;;;;;31.20;29.07;;;;;;;21.98;100.00;101252.28;1972193;73;31506;-74
2021/08/19 18:01:13;;;;;;;29.67;27.90;;;;;;;22.10;100.00;101248.62;1971958;73;30976;-68
2021/08/19 18:06:38;;;;;;;30.17;28.27;;;;;;;22.28;100.00;101260.53;1972173;73;31486;-74
2021/08/19 18:12:04;;;;;;;30.72;28.70;;;;;;;22.06;100.00;101261.23;1972023;73;30964;-79
2021/08/19 18:17:29;;;;;;;32.63;30.83;;;;;;;22.02;100.00;101253.22;1971923;73;30944;-70
2021/08/19 18:22:55;;;;;;;35.08;32.83;;;;;;;21.93;100.00;101252.50;1972132;72;31515;-71
2021/08/19 18:28:19;;;;;;;35.08;32.98;;;;;;;21.93;100.00;101250.27;1971957;73;31071;-74
2021/08/19 18:33:45;;;;;;;38.57;36.13;;;;;;;21.88;100.00;101247.63;1972043;73;31020;-68
2021/08/19 18:39:11;;;;;;;41.77;39.38;;;;;;;21.37;100.00;101246.22;1972008;73;30978;-67
2021/08/19 18:44:35;;;;;;;44.40;41.90;;;;;;;21.23;100.00;101250.17;1972177;73;31618;-72
2021/08/19 18:50:01;;;;;;;43.57;41.07;;;;;;;21.19;100.00;101252.05;1971966;73;30958;-78
2021/08/19 18:55:26;;;;;;;44.37;41.83;;;;;;;21.07;100.00;101261.02;1972020;72;31065;-71
2021/08/19 19:00:50;;;;;;;44.57;41.97;;;;;;;20.96;100.00;101269.69;1972194;73;31500;-78
2021/08/19 19:06:15;;;;;;;45.53;42.93;;;;;;;20.87;100.00;101269.18;1972293;72;31126;-76
2021/08/19 19:11:40;;;;;;;45.53;42.93;;;;;;;20.85;100.00;101274.33;1972003;73;30990;-73
2021/08/19 19:17:06;;;;;;;45.60;43.00;;;;;;;20.79;100.00;101274.28;1972178;73;31498;-68
2021/08/19 19:22:32;;;;;;;45.97;43.27;;;;;;;20.76;100.00;101282.62;1971962;73;31102;-71
2021/08/19 19:27:56;;;;;;;45.33;42.63;;;;;;;20.71;100.00;101294.94;1972003;73;31096;-73
2021/08/19 19:33:22;;;;;;;45.87;43.17;;;;;;;20.72;100.00;101306.48;1972260;73;33458;-73
2021/08/19 19:38:47;;;;;;;46.90;44.03;;;;;;;20.56;100.00;101307.42;1972288;73;31457;-79
2021/08/19 19:44:12;;;;;;;44.93;42.23;;;;;;;20.49;100.00;101317.02;1972142;73;31460;-76
2021/08/19 19:49:36;;;;;;;44.43;41.83;;;;;;;20.43;100.00;101320.62;1972147;73;30963;-68
2021/08/19 19:55:01;;;;;;;44.40;41.73;;;;;;;20.51;100.00;101321.15;1971974;73;31000;-77
2021/08/19 20:00:26;;;;;;;42.70;40.20;;;;;;;20.45;100.00;101324.73;1972209;73;31457;-76
2021/08/19 20:05:51;;;;;;;41.27;38.77;;;;;;;20.40;100.00;101326.95;1972200;73;30989;-81
2021/08/19 20:11:16;;;;;;;43.10;40.40;;;;;;;20.31;100.00;101336.03;1971990;73;31082;-75
2021/08/19 20:16:40;;;;;;;43.47;40.80;;;;;;;20.32;100.00;101341.31;1972240;73;31050;-71
2021/08/19 20:22:08;;;;;;;43.57;40.87;;;;;;;20.22;100.00;101347.91;1963900;71;30994;-77
2021/08/19 20:27:33;;;;;;;43.10;40.50;;;;;;;20.18;100.00;101351.98;1972185;73;31469;-82
2021/08/19 20:32:58;;;;;;;43.07;40.37;;;;;;;20.05;100.00;101362.07;1972159;73;31576;-71
2021/08/19 20:38:22;;;;;;;44.27;41.50;;;;;;;20.07;100.00;101360.55;1972132;73;31566;-75
2021/08/19 20:43:47;;;;;;;44.70;41.90;;;;;;;19.94;100.00;101358.77;1971976;73;31063;-74
2021/08/19 20:49:12;;;;;;;43.20;40.50;;;;;;;19.96;100.00;101366.33;1972264;72;30970;-80
2021/08/19 20:54:37;;;;;;;42.30;39.60;;;;;;;19.83;100.00;101368.19;1972152;73;31657;-72
2021/08/19 21:00:02;;;;;;;43.60;40.80;;;;;;;19.78;100.00;101370.34;1971987;73;30995;-74
2021/08/19 21:05:27;;;;;;;43.80;40.87;;;;;;;19.66;100.00;101384.30;1971999;73;31070;-70
2021/08/19 21:10:51;;;;;;;43.67;40.80;;;;;;;19.73;100.00;101402.34;1972106;73;31475;-76
2021/08/19 21:16:16;;;;;;;43.83;40.90;;;;;;;19.52;100.00;101399.97;1972025;73;31073;-72
2021/08/19 21:21:41;;;;;;;46.07;42.97;;;;;;;19.44;100.00;101414.31;1958081;73;31059;-74
2021/08/19 21:27:07;;;;;;;45.43;42.43;;;;;;;19.38;100.00;101414.18;1972189;73;31050;-77
2021/08/19 21:32:32;;;;;;;45.53;42.53;;;;;;;19.23;100.00;101412.44;1971971;73;31016;-77
2021/08/19 21:37:57;;;;;;;44.47;41.50;;;;;;;19.28;100.00;101401.02;1972160;73;31465;-74
2021/08/19 21:43:22;;;;;;;44.13;41.23;;;;;;;19.16;100.00;101404.49;1972182;73;31035;-77
2021/08/19 21:48:46;;;;;;;43.93;41.03;;;;;;;18.98;100.00;101405.05;1972197;73;31437;-71
2021/08/19 21:54:11;;;;;;;43.97;41.07;;;;;;;19.03;100.00;101402.08;1972152;73;31456;-78
2021/08/19 21:59:37;;;;;;;43.73;40.93;;;;;;;18.97;100.00;101398.32;1971959;73;31017;-72
2021/08/19 22:05:01;;;;;;;43.57;40.87;;;;;;;18.93;100.00;101405.19;1972213;73;31464;-78
2021/08/19 22:10:26;;;;;;;41.13;38.53;;;;;;;18.87;100.00;101412.73;1972171;73;31528;-80
2021/08/19 22:15:51;;;;;;;41.43;38.73;;;;;;;18.74;100.00;101407.45;1971945;73;31090;-76
2021/08/19 22:21:35;;;;;;;40.27;37.67;;;;;;;18.67;100.00;101422.58;2016140;70;30991;-79
2021/08/19 22:27:01;;;;;;;39.60;37.00;;;;;;;18.63;100.00;101424.39;1971948;73;31029;-71
2021/08/19 22:32:46;;;;;;;41.07;38.43;;;;;;;18.60;100.00;101429.27;2016157;71;30843;-79
2021/08/19 22:38:31;;;;;;;41.00;38.30;;;;;;;18.47;100.00;101432.41;2016506;71;30947;-79
2021/08/19 22:43:58;;;;;;;40.37;37.67;;;;;;;18.50;100.00;101440.20;1971967;73;30963;-80
2021/08/19 22:49:23;;;;;;;39.87;37.30;;;;;;;18.29;100.00;101446.70;1972152;73;31079;-78
2021/08/19 22:55:08;;;;;;;39.33;36.73;;;;;;;18.19;100.00;101443.02;2016315;71;33338;-78
2021/08/19 23:00:53;;;;;;;39.90;37.10;;;;;;;18.20;100.00;101446.66;2016355;71;31326;-77
2021/08/19 23:06:17;;;;;;;39.87;37.17;;;;;;;18.03;100.00;101451.60;1972227;73;31433;-80
2021/08/19 23:11:42;;;;;;;41.33;38.37;;;;;;;17.92;100.00;101457.24;1972133;73;30982;-79
2021/08/19 23:17:07;;;;;;;40.70;37.90;;;;;;;17.85;100.00;101458.25;1900636;75;31154;-77
2021/08/19 23:22:31;;;;;;;41.57;38.67;;;;;;;17.72;100.00;101461.94;1948083;73;30967;-73
2021/08/19 23:27:59;;;;;;;40.20;37.40;;;;;;;17.76;100.00;101458.75;1971924;73;30967;-72
2021/08/19 23:33:23;;;;;;;40.33;37.70;;;;;;;17.69;100.00;101459.78;1972171;73;31041;-72
2021/08/19 23:38:48;;;;;;;40.60;37.93;;;;;;;17.86;100.00;101466.11;1971932;73;31066;-72
2021/08/19 23:44:12;;;;;;;40.93;38.03;;;;;;;17.63;100.00;101456.82;1971913;73;31079;-72
2021/08/19 23:49:38;;;;;;;42.13;39.23;;;;;;;17.65;100.00;101466.61;1971952;73;30957;-80
2021/08/19 23:55:05;;;;;;;40.53;37.83;;;;;;;17.71;100.00;101470.94;1972186;73;31459;-70
